createdAt,value
2019-05-13T00:01:47.647Z,94786.03
2019-05-13T00:04:17.508Z,94773.28
2019-05-13T00:06:54.012Z,94792.53
2019-05-13T00:09:21.282Z,94800.41
2019-05-13T00:11:51.043Z,94805.84
2019-05-13T00:14:20.760Z,94848.80
2019-05-13T00:16:50.539Z,94826.58
2019-05-13T00:19:20.325Z,94818.56
2019-05-13T00:21:50.031Z,94878.28
2019-05-13T00:24:19.804Z,94820.48
2019-05-13T00:26:49.586Z,94813.48
2019-05-13T00:29:19.333Z,94796.56
2019-05-13T00:31:49.054Z,94821.02
2019-05-13T00:34:18.830Z,94805.55
2019-05-13T00:36:48.511Z,94787.13
2019-05-13T00:39:18.248Z,94781.33
2019-05-13T00:41:48.085Z,94766.63
2019-05-13T00:44:17.853Z,94751.27
2019-05-13T00:46:47.580Z,94732.77
2019-05-13T00:49:17.359Z,94706.37
2019-05-13T00:51:47.227Z,94717.42
2019-05-13T00:54:16.969Z,94638.24
2019-05-13T00:56:46.673Z,94601.31
2019-05-13T00:59:16.337Z,94630.06
2019-05-13T01:01:46.118Z,94611.30
2019-05-13T01:04:15.934Z,94615.39
2019-05-13T01:06:45.677Z,94576.60
2019-05-13T01:09:16.071Z,94556.86
2019-05-13T01:11:45.889Z,94471.83
2019-05-13T01:14:15.622Z,94421.20
2019-05-13T01:16:45.372Z,94413.87
2019-05-13T01:19:15.138Z,94373.44
2019-05-13T01:21:44.883Z,94346.20
2019-05-13T01:24:14.693Z,94316.56
2019-05-13T01:26:44.500Z,94266.33
2019-05-13T01:29:14.725Z,94247.16
2019-05-13T01:31:44.603Z,94269.32
2019-05-13T01:34:14.455Z,94238.47
2019-05-13T01:36:44.774Z,94239.70
2019-05-13T01:39:14.711Z,94177.86
2019-05-13T01:41:44.493Z,94080.76
2019-05-13T01:44:14.241Z,94079.37
2019-05-13T01:46:44.039Z,93955.85
2019-05-13T01:49:13.897Z,93906.05
2019-05-13T01:51:44.165Z,93898.03
2019-05-13T01:54:14.332Z,93771.86
2019-05-13T01:56:44.313Z,93689.63
2019-05-13T01:59:15.196Z,93708.70
2019-05-13T02:01:45.139Z,93694.63
2019-05-13T02:04:14.900Z,93656.75
2019-05-13T02:06:44.655Z,93643.92
2019-05-13T02:09:14.502Z,93596.70
2019-05-13T02:11:46.582Z,93602.08
2019-05-13T02:14:15.755Z,93632.13
2019-05-13T02:16:45.504Z,93641.79
2019-05-13T02:19:15.324Z,93705.70
2019-05-13T02:21:45.082Z,93648.97
2019-05-13T02:24:14.840Z,93703.13
2019-05-13T02:26:44.665Z,93703.35
2019-05-13T02:29:14.510Z,93709.41
2019-05-13T02:31:51.067Z,93685.17
2019-05-13T02:34:15.811Z,93732.38
2019-05-13T02:36:45.645Z,93769.56
2019-05-13T02:39:15.406Z,93789.90
2019-05-13T02:41:45.252Z,93842.73
2019-05-13T02:44:14.989Z,93878.05
2019-05-13T02:46:44.785Z,93831.41
2019-05-13T02:49:14.602Z,93868.41
2019-05-13T02:51:44.333Z,93851.77
2019-05-13T02:54:14.088Z,93876.61
2019-05-13T02:56:43.907Z,93887.16
2019-05-13T02:59:13.637Z,93874.70
2019-05-13T03:01:43.496Z,93957.95
2019-05-13T03:04:14.213Z,93920.66
2019-05-13T03:06:43.962Z,93954.89
2019-05-13T03:09:13.714Z,93999.07
2019-05-13T03:11:43.691Z,94010.84
2019-05-13T03:14:13.576Z,94095.31
2019-05-13T03:16:47.907Z,93971.70
2019-05-13T03:19:17.706Z,94043.75
2019-05-13T03:21:47.483Z,93616.76
2019-05-13T03:24:17.235Z,94063.25
2019-05-13T03:26:47.009Z,94107.60
2019-05-13T03:29:16.792Z,94038.37
2019-05-13T03:31:47.488Z,94087.80
2019-05-13T03:34:17.355Z,94050.05
2019-05-13T03:36:47.157Z,94069.91
2019-05-13T03:39:17.187Z,94068.05
2019-05-13T03:41:48.484Z,94080.69
2019-05-13T03:44:23.253Z,94124.16
2019-05-13T03:46:53.161Z,94115.84
2019-05-13T03:49:25.341Z,94078.27
2019-05-13T03:51:55.498Z,94177.13
2019-05-13T03:54:25.652Z,94140.59
2019-05-13T03:56:56.734Z,94154.92
2019-05-13T03:59:26.515Z,94242.70
2019-05-13T04:01:56.248Z,94258.71
2019-05-13T04:04:26.058Z,94322.52
2019-05-13T04:06:55.730Z,94331.14
2019-05-13T04:09:31.486Z,94334.00
2019-05-13T04:11:56.976Z,94303.73
2019-05-13T04:14:26.693Z,94283.27
2019-05-13T04:16:56.432Z,94352.70
2019-05-13T04:19:26.251Z,94364.94
2019-05-13T04:21:55.996Z,94360.18
2019-05-13T04:24:25.775Z,94442.44
2019-05-13T04:26:55.457Z,94395.22
2019-05-13T04:29:25.225Z,94434.53
2019-05-13T04:31:55.005Z,94473.43
2019-05-13T04:34:24.708Z,94485.45
2019-05-13T04:36:54.466Z,94433.95
2019-05-13T04:39:40.516Z,94459.52
2019-05-13T04:41:55.745Z,94465.77
2019-05-13T04:44:26.201Z,94463.82
2019-05-13T04:46:56.075Z,94481.95
2019-05-13T04:49:25.887Z,94461.02
2019-05-13T04:51:55.636Z,94475.77
2019-05-13T04:54:25.367Z,94462.84
2019-05-13T04:56:55.346Z,94516.28
2019-05-13T04:59:25.170Z,94552.31
2019-05-13T05:02:22.614Z,94581.08
2019-05-13T05:05:07.487Z,94559.41
2019-05-13T05:07:43.100Z,94627.87
2019-05-13T05:10:38.666Z,94636.24
2019-05-13T05:13:37.617Z,94670.25
2019-05-13T05:16:25.498Z,94663.85
2019-05-13T05:19:14.714Z,94633.45
2019-05-13T05:22:08.898Z,94583.83
2019-05-13T05:24:53.880Z,94647.19
2019-05-13T05:27:51.461Z,94580.45
2019-05-13T05:30:36.346Z,94604.27
2019-05-13T05:33:12.068Z,94597.89
2019-05-13T05:36:13.746Z,94658.86
2019-05-13T05:39:07.551Z,94709.64
2019-05-13T05:41:37.440Z,94653.05
2019-05-13T05:44:08.560Z,94690.44
2019-05-13T05:46:42.495Z,94700.73
2019-05-13T05:49:12.707Z,94689.30
2019-05-13T05:51:43.989Z,94782.77
2019-05-13T05:54:14.930Z,94791.39
2019-05-13T05:56:45.820Z,94740.28
2019-05-13T05:59:15.579Z,94723.63
2019-05-13T06:01:45.935Z,94683.96
2019-05-13T06:04:15.741Z,94779.03
2019-05-13T06:06:47.186Z,94853.94
2019-05-13T06:09:16.965Z,94834.90
2019-05-13T06:11:46.727Z,94826.01
2019-05-13T06:14:16.521Z,94864.00
2019-05-13T06:16:46.309Z,94956.97
2019-05-13T06:19:17.979Z,95025.28
2019-05-13T06:21:51.184Z,95019.52
2019-05-13T06:24:24.555Z,94912.06
2019-05-13T06:26:52.176Z,95041.45
2019-05-13T06:29:22.332Z,95006.19
2019-05-13T06:31:52.403Z,95014.34
2019-05-13T06:34:23.022Z,95031.59
2019-05-13T06:36:52.749Z,95063.13
2019-05-13T06:39:22.507Z,95118.95
2019-05-13T06:41:52.736Z,94668.92
2019-05-13T06:44:22.501Z,95006.56
2019-05-13T06:46:54.063Z,95095.41
2019-05-13T06:49:24.738Z,95112.17
2019-05-13T06:51:56.164Z,95115.34
2019-05-13T06:54:25.730Z,95045.98
2019-05-13T06:56:55.554Z,95032.25
2019-05-13T06:59:26.320Z,95030.41
2019-05-13T07:01:56.922Z,95077.02
2019-05-13T07:04:27.750Z,95096.84
2019-05-13T07:07:10.056Z,95099.04
2019-05-13T07:09:31.997Z,95142.40
2019-05-13T07:12:03.246Z,95199.95
2019-05-13T07:14:32.715Z,95171.36
2019-05-13T07:17:04.329Z,95193.92
2019-05-13T07:19:34.103Z,95237.13
2019-05-13T07:22:04.020Z,95185.38
2019-05-13T07:24:34.231Z,95120.19
2019-05-13T07:27:04.043Z,95111.80
2019-05-13T07:29:33.946Z,95097.59
2019-05-13T07:32:03.707Z,95116.63
2019-05-13T07:34:34.183Z,95119.69
2019-05-13T07:37:04.054Z,95115.45
2019-05-13T07:39:34.687Z,95162.25
2019-05-13T07:42:05.852Z,95113.34
2019-05-13T07:44:35.940Z,95150.06
2019-05-13T07:47:05.715Z,95142.14
2019-05-13T07:49:36.348Z,95120.49
2019-05-13T07:52:06.133Z,95131.03
2019-05-13T07:54:38.185Z,95169.83
2019-05-13T07:57:07.982Z,95208.28
2019-05-13T07:59:38.421Z,95239.67
2019-05-13T08:02:09.043Z,95165.17
2019-05-13T08:04:41.908Z,95158.13
2019-05-13T08:07:12.039Z,95157.70
2019-05-13T08:09:42.161Z,95173.36
2019-05-13T08:12:14.571Z,95126.50
2019-05-13T08:14:43.812Z,95102.89
2019-05-13T08:17:14.465Z,95072.95
2019-05-13T08:19:44.317Z,95124.03
2019-05-13T08:22:14.263Z,95089.73
2019-05-13T08:24:45.158Z,95138.60
2019-05-13T08:27:15.069Z,95282.23
2019-05-13T08:29:44.805Z,95281.07
2019-05-13T08:32:14.791Z,95212.34
2019-05-13T08:34:44.829Z,95231.89
2019-05-13T08:37:14.853Z,95209.82
2019-05-13T08:39:45.450Z,95250.39
2019-05-13T08:42:19.811Z,95259.18
2019-05-13T08:44:48.596Z,95186.44
2019-05-13T08:47:18.365Z,95164.91
2019-05-13T08:49:48.121Z,95177.30
2019-05-13T08:52:17.847Z,95143.38
2019-05-13T08:54:47.567Z,95182.09
2019-05-13T08:57:17.330Z,95249.88
2019-05-13T08:59:47.089Z,95219.07
2019-05-13T09:02:16.865Z,95236.26
2019-05-13T09:04:51.295Z,95222.91
2019-05-13T09:07:24.369Z,95249.03
2019-05-13T09:09:53.487Z,95180.69
2019-05-13T09:12:32.028Z,95150.72
2019-05-13T09:14:56.575Z,95099.58
2019-05-13T09:17:27.441Z,95104.30
2019-05-13T09:19:57.268Z,95030.61
2019-05-13T09:22:26.978Z,94958.30
2019-05-13T09:24:56.723Z,94963.01
2019-05-13T09:27:26.637Z,94960.19
2019-05-13T09:29:56.369Z,94913.05
2019-05-13T09:32:26.040Z,94925.64
2019-05-13T09:34:56.245Z,94957.00
2019-05-13T09:37:25.965Z,94883.99
2019-05-13T09:39:55.773Z,94919.01
2019-05-13T09:42:25.591Z,94936.44
2019-05-13T09:44:56.265Z,95010.83
2019-05-13T09:47:28.339Z,95016.39
2019-05-13T09:49:57.600Z,94963.53
2019-05-13T09:52:27.348Z,94997.72
2019-05-13T09:54:57.116Z,94982.81
2019-05-13T09:57:26.968Z,94977.28
2019-05-13T09:59:56.772Z,95036.05
2019-05-13T10:02:26.495Z,95137.84
2019-05-13T10:04:56.293Z,95153.23
2019-05-13T10:07:26.425Z,95251.78
2019-05-13T10:09:56.202Z,95274.38
2019-05-13T10:12:26.047Z,95244.67
2019-05-13T10:14:55.795Z,95203.84
2019-05-13T10:17:25.551Z,95131.69
2019-05-13T10:19:55.400Z,95110.58
2019-05-13T10:22:25.137Z,95132.75
2019-05-13T10:24:55.972Z,95133.11
2019-05-13T10:27:26.860Z,95154.78
2019-05-13T10:29:56.765Z,95174.03
2019-05-13T10:32:27.416Z,95217.59
2019-05-13T10:34:58.809Z,95279.64
2019-05-13T10:37:29.175Z,95265.69
2019-05-13T10:40:02.295Z,95293.91
2019-05-13T10:42:34.655Z,95278.40
2019-05-13T10:45:05.595Z,95345.37
2019-05-13T10:47:36.202Z,95245.16
2019-05-13T10:50:07.606Z,95347.98
2019-05-13T10:52:37.191Z,95404.92
2019-05-13T10:55:08.739Z,95350.13
2019-05-13T10:57:42.443Z,95339.48
2019-05-13T11:00:13.902Z,95315.50
2019-05-13T11:02:46.065Z,95404.06
2019-05-13T11:05:15.672Z,95489.09
2019-05-13T11:07:45.429Z,94834.47
2019-05-13T11:10:21.885Z,95560.77
2019-05-13T11:12:53.086Z,95566.65
2019-05-13T11:15:23.680Z,95560.20
2019-05-13T11:17:54.625Z,95633.56
2019-05-13T11:20:24.386Z,95648.66
2019-05-13T11:22:55.928Z,95580.47
2019-05-13T11:25:25.726Z,95619.16
2019-05-13T11:27:58.403Z,95629.88
2019-05-13T11:30:28.527Z,95610.52
2019-05-13T11:32:58.724Z,95641.00
2019-05-13T11:35:28.879Z,95665.30
2019-05-13T11:38:00.968Z,95653.44
2019-05-13T11:40:32.012Z,95650.61
2019-05-13T11:43:01.943Z,95653.81
2019-05-13T11:45:31.805Z,95628.92
2019-05-13T11:50:34.035Z,95671.05
2019-05-13T11:53:30.116Z,95661.98
2019-05-13T11:55:39.108Z,95696.27
2019-05-13T11:58:13.842Z,95683.98
2019-05-13T12:00:48.569Z,95657.00
2019-05-13T12:03:22.976Z,95649.81
2019-05-13T12:05:53.875Z,95622.48
2019-05-13T12:08:23.432Z,95609.23
2019-05-13T12:10:54.123Z,95615.80
2019-05-13T12:13:24.049Z,95593.55
2019-05-13T12:15:54.817Z,95555.63
2019-05-13T12:18:25.692Z,95549.66
2019-05-13T12:20:56.129Z,95551.93
2019-05-13T12:23:27.749Z,95542.32
2019-05-13T12:26:00.083Z,95556.13
2019-05-13T12:28:33.636Z,95478.70
2019-05-13T12:31:03.650Z,95501.58
2019-05-13T12:33:33.471Z,95482.98
2019-05-13T12:36:03.258Z,95545.70
2019-05-13T12:38:33.718Z,95524.95
2019-05-13T12:41:05.037Z,95515.38
2019-05-13T12:43:35.060Z,95495.00
2019-05-13T12:46:04.903Z,95442.75
2019-05-13T12:48:34.678Z,95516.63
2019-05-13T12:51:04.293Z,95510.94
2019-05-13T12:53:34.092Z,95540.11
2019-05-13T12:56:04.626Z,95580.54
2019-05-13T12:58:36.042Z,95557.97
2019-05-13T13:01:08.323Z,95578.16
2019-05-13T13:03:40.885Z,95594.67
2019-05-13T13:06:27.177Z,95563.87
2019-05-13T13:08:48.710Z,95587.30
2019-05-13T13:11:15.042Z,95595.34
2019-05-13T13:13:58.772Z,95578.83
2019-05-13T13:16:17.658Z,95586.36
2019-05-13T13:18:48.482Z,95555.83
2019-05-13T13:21:18.183Z,95526.89
2019-05-13T13:23:49.557Z,95511.67
2019-05-13T13:26:21.724Z,95495.48
2019-05-13T13:28:55.762Z,95516.05
2019-05-13T13:31:27.327Z,95485.44
2019-05-13T13:34:08.096Z,95420.98
2019-05-13T13:36:32.675Z,95429.16
2019-05-13T13:39:03.889Z,95432.59
2019-05-13T13:41:33.844Z,95390.58
2019-05-13T13:44:05.356Z,95379.48
2019-05-13T13:46:42.859Z,95376.48
2019-05-13T13:49:08.772Z,95372.92
2019-05-13T13:51:39.378Z,95381.78
2019-05-13T13:54:12.455Z,95347.16
2019-05-13T13:56:43.919Z,95341.23
2019-05-13T13:59:14.283Z,95344.45
2019-05-13T14:01:44.857Z,95328.42
2019-05-13T14:04:16.533Z,95326.28
2019-05-13T14:07:05.575Z,95642.44
2019-05-13T14:09:18.165Z,95287.62
2019-05-13T14:11:51.548Z,95340.97
2019-05-13T14:14:21.954Z,95263.56
2019-05-13T14:16:52.031Z,95274.16
2019-05-13T14:19:22.018Z,95281.01
2019-05-13T14:21:53.334Z,95254.98
2019-05-13T14:24:23.221Z,95279.48
2019-05-13T14:26:52.992Z,95262.26
2019-05-13T14:29:37.673Z,95246.48
2019-05-13T14:31:55.811Z,95241.52
2019-05-13T14:34:25.490Z,95280.00
2019-05-13T14:36:55.267Z,95300.84
2019-05-13T14:39:25.186Z,95302.58
2019-05-13T14:41:54.964Z,95330.13
2019-05-13T14:44:24.758Z,95314.77
2019-05-13T14:46:54.523Z,95318.17
2019-05-13T14:49:24.276Z,95295.08
2019-05-13T14:51:56.456Z,95294.62
2019-05-13T14:54:29.250Z,95294.52
2019-05-13T14:57:02.370Z,95289.91
2019-05-13T14:59:32.518Z,95310.16
2019-05-13T15:02:02.584Z,95383.60
2019-05-13T15:04:34.149Z,95383.52
2019-05-13T15:07:06.446Z,95331.82
2019-05-13T15:09:38.277Z,95335.31
2019-05-13T15:12:08.847Z,95253.02
2019-05-13T15:14:40.665Z,95272.46
2019-05-13T15:17:12.744Z,95307.53
2019-05-13T15:19:45.920Z,95301.71
2019-05-13T15:22:16.202Z,95305.86
2019-05-13T15:24:46.044Z,95287.07
2019-05-13T15:27:22.064Z,95311.67
2019-05-13T15:29:51.571Z,95314.67
2019-05-13T15:32:21.900Z,95324.58
2019-05-13T15:34:52.035Z,95273.30
2019-05-13T15:37:21.792Z,95275.96
2019-05-13T15:39:53.944Z,95275.22
2019-05-13T15:42:24.255Z,95293.02
2019-05-13T15:44:54.322Z,95306.73
2019-05-13T15:47:26.907Z,95275.86
2019-05-13T15:49:56.604Z,95326.03
2019-05-13T15:52:26.652Z,95337.68
2019-05-13T15:54:57.555Z,95309.40
2019-05-13T15:57:29.853Z,95337.15
2019-05-13T16:00:02.115Z,95338.44
2019-05-13T16:02:32.021Z,95331.09
2019-05-13T16:05:04.957Z,95325.13
2019-05-13T16:07:36.791Z,95353.73
2019-05-13T16:10:08.369Z,95342.31
2019-05-13T16:12:40.211Z,95335.31
2019-05-13T16:15:15.818Z,95325.12
2019-05-13T16:17:47.842Z,95385.24
2019-05-13T16:20:18.028Z,95356.69
2019-05-13T16:22:48.229Z,95370.32
2019-05-13T16:25:18.666Z,95377.08
2019-05-13T16:27:49.210Z,95364.20
2019-05-13T16:30:22.257Z,95362.50
2019-05-13T16:32:52.979Z,95391.63
2019-05-13T16:35:22.812Z,95352.56
2019-05-13T16:37:54.063Z,95445.02
2019-05-13T16:40:25.465Z,95493.05
2019-05-13T16:42:55.339Z,95488.37
2019-05-13T16:45:26.730Z,95450.99
2019-05-13T16:48:00.448Z,95435.30
2019-05-13T16:50:31.263Z,95407.91
2019-05-13T16:53:04.053Z,95422.59
2019-05-13T16:55:35.659Z,95444.61
2019-05-13T16:58:06.155Z,95397.59
2019-05-13T17:00:35.961Z,95410.22
2019-05-13T17:03:05.767Z,95431.55
2019-05-13T17:05:35.614Z,95473.72
2019-05-13T17:08:06.441Z,95464.95
2019-05-13T17:10:38.740Z,95462.28
2019-05-13T17:13:08.639Z,95482.63
2019-05-13T17:15:41.543Z,95454.89
2019-05-13T17:18:12.910Z,95473.45
2019-05-13T17:20:43.785Z,95478.91
2019-05-13T17:23:13.564Z,95523.87
2019-05-13T17:25:43.544Z,95473.81
2019-05-13T17:28:15.738Z,95496.61
2019-05-13T17:30:45.478Z,95495.05
2019-05-13T17:33:15.434Z,95497.39
2019-05-13T17:35:46.272Z,95560.48
2019-05-13T17:38:16.012Z,95596.41
2019-05-13T17:40:49.799Z,95620.75
2019-05-13T17:43:21.358Z,95623.45
2019-05-13T17:45:53.424Z,95656.17
2019-05-13T17:48:29.328Z,95595.21
2019-05-13T17:51:01.335Z,95577.98
2019-05-13T17:53:33.282Z,95519.14
2019-05-13T17:56:03.033Z,95488.02
2019-05-13T17:58:33.780Z,95510.13
2019-05-13T18:01:03.558Z,95513.87
2019-05-13T18:03:35.124Z,95501.35
2019-05-13T18:06:07.756Z,95512.21
2019-05-13T18:08:38.019Z,95495.91
2019-05-13T18:11:11.419Z,95489.98
2019-05-13T18:13:43.890Z,95500.62
2019-05-13T18:16:13.680Z,95469.20
2019-05-13T18:18:47.482Z,95493.59
2019-05-13T18:21:15.913Z,95441.70
2019-05-13T18:23:46.117Z,95455.23
2019-05-13T18:26:16.299Z,95455.38
2019-05-13T18:28:46.223Z,95425.09
2019-05-13T18:31:16.443Z,95393.69
2019-05-13T18:33:48.383Z,95406.52
2019-05-13T18:36:22.142Z,95411.16
2019-05-13T18:38:51.904Z,95421.09
2019-05-13T18:41:21.683Z,95448.16
2019-05-13T18:43:54.905Z,95406.00
2019-05-13T18:46:24.155Z,95380.80
2019-05-13T18:48:59.377Z,95386.20
2019-05-13T18:51:31.585Z,95406.78
2019-05-13T18:54:04.071Z,95447.77
2019-05-13T18:56:38.780Z,95446.55
2019-05-13T18:59:08.640Z,95337.97
2019-05-13T19:01:38.517Z,95326.34
2019-05-13T19:04:11.462Z,95303.87
2019-05-13T19:06:42.603Z,95269.32
2019-05-13T19:09:13.759Z,95261.55
2019-05-13T19:11:44.198Z,95276.70
2019-05-13T19:14:13.950Z,95279.11
2019-05-13T19:16:45.392Z,95248.11
2019-05-13T19:19:20.710Z,95245.15
2019-05-13T19:21:51.484Z,95226.80
2019-05-13T19:24:21.238Z,95247.06
2019-05-13T19:26:52.104Z,95201.08
2019-05-13T19:29:26.137Z,95133.56
2019-05-13T19:31:58.913Z,95138.19
2019-05-13T19:34:32.366Z,95124.58
2019-05-13T19:37:02.557Z,95133.80
2019-05-13T19:39:33.552Z,95120.01
2019-05-13T19:42:07.921Z,95124.06
2019-05-13T19:44:37.817Z,95075.50
2019-05-13T19:47:12.652Z,95151.34
2019-05-13T19:49:46.301Z,95106.88
2019-05-13T19:52:16.318Z,95124.67
2019-05-13T19:54:47.541Z,95125.47
2019-05-13T19:57:17.354Z,95146.19
2019-05-13T19:59:47.734Z,95165.03
2019-05-13T20:02:17.443Z,95125.91
2019-05-13T20:04:47.396Z,95139.67
2019-05-13T20:07:17.284Z,95143.45
2019-05-13T20:09:52.033Z,95095.77
2019-05-13T20:12:23.369Z,95121.08
2019-05-13T20:14:53.234Z,95165.31
2019-05-13T20:17:28.286Z,95127.75
2019-05-13T20:20:02.139Z,95134.64
2019-05-13T20:22:32.253Z,95149.14
2019-05-13T20:25:02.601Z,95147.97
2019-05-13T20:27:36.048Z,95142.65
2019-05-13T20:30:07.025Z,95083.75
2019-05-13T20:32:37.516Z,95101.14
2019-05-13T20:35:08.691Z,95102.98
2019-05-13T20:37:38.802Z,95141.96
2019-05-13T20:40:11.515Z,95203.25
2019-05-13T20:42:44.912Z,95199.98
2019-05-13T20:45:19.262Z,95199.31
2019-05-13T20:47:49.460Z,95240.75
2019-05-13T20:50:21.528Z,95259.14
2019-05-13T20:52:51.757Z,95276.03
2019-05-13T20:55:22.180Z,95260.70
2019-05-13T20:57:55.005Z,95010.52
2019-05-13T21:00:27.925Z,95226.34
2019-05-13T21:02:57.722Z,95206.59
2019-05-13T21:05:27.503Z,95232.32
2019-05-13T21:07:57.680Z,95230.46
2019-05-13T21:10:27.807Z,95247.25
2019-05-13T21:12:58.642Z,95232.71
2019-05-13T21:15:31.566Z,95232.09
2019-05-13T21:18:02.055Z,95252.72
2019-05-13T21:20:32.396Z,95295.69
2019-05-13T21:23:04.063Z,95277.73
2019-05-13T21:25:33.845Z,95298.52
2019-05-13T21:28:03.610Z,95286.42
2019-05-13T21:30:33.384Z,95252.56
2019-05-13T21:33:03.485Z,95280.58
2019-05-13T21:35:33.463Z,95260.75
2019-05-13T21:38:06.739Z,95264.36
2019-05-13T21:40:36.609Z,95263.09
2019-05-13T21:43:06.891Z,95308.83
2019-05-13T21:45:36.632Z,95343.83
2019-05-13T21:48:08.166Z,95298.30
2019-05-13T21:50:37.953Z,95328.58
2019-05-13T21:53:07.670Z,95318.66
2019-05-13T21:55:37.398Z,95376.23
2019-05-13T21:58:07.161Z,95323.17
2019-05-13T22:00:41.815Z,95352.09
2019-05-13T22:03:11.980Z,95308.01
2019-05-13T22:05:42.161Z,95298.38
2019-05-13T22:08:12.370Z,95338.22
2019-05-13T22:10:42.116Z,95361.25
2019-05-13T22:13:12.703Z,95336.20
2019-05-13T22:15:43.174Z,95269.18
2019-05-13T22:18:12.811Z,95333.12
2019-05-13T22:20:49.955Z,95284.20
2019-05-13T22:23:14.117Z,95261.55
2019-05-13T22:25:47.418Z,95303.17
2019-05-13T22:28:17.059Z,95306.59
2019-05-13T22:30:46.765Z,95274.22
2019-05-13T22:33:19.081Z,95320.64
2019-05-13T22:35:52.122Z,95300.83
2019-05-13T22:38:21.489Z,95311.64
2019-05-13T22:40:52.092Z,95313.97
2019-05-13T22:43:22.166Z,95314.75
2019-05-13T22:45:52.753Z,95337.05
2019-05-13T22:48:22.765Z,95320.11
2019-05-13T22:50:52.485Z,95387.84
2019-05-13T22:53:22.268Z,95387.04
2019-05-13T22:55:52.248Z,95383.19
2019-05-13T22:58:22.687Z,95395.89
2019-05-13T23:00:52.526Z,95315.23
2019-05-13T23:03:23.057Z,95389.82
2019-05-13T23:05:53.655Z,95340.43
2019-05-13T23:08:23.335Z,95326.59
2019-05-13T23:10:53.815Z,95337.34
2019-05-13T23:13:23.622Z,95344.26
2019-05-13T23:15:54.923Z,95360.57
2019-05-13T23:18:24.941Z,95357.73
2019-05-13T23:20:54.776Z,95347.34
2019-05-13T23:23:26.093Z,95300.95
2019-05-13T23:25:56.994Z,95298.60
2019-05-13T23:28:27.542Z,95302.23
2019-05-13T23:30:58.265Z,95185.90
2019-05-13T23:33:28.287Z,95185.28
2019-05-13T23:36:01.509Z,95231.55
2019-05-13T23:38:34.095Z,95244.42
2019-05-13T23:41:03.800Z,95257.18
2019-05-13T23:43:34.546Z,95310.97
2019-05-13T23:46:04.341Z,95299.70
2019-05-13T23:48:35.002Z,95234.78
2019-05-13T23:51:05.219Z,95244.17
2019-05-13T23:53:35.727Z,95239.36
2019-05-13T23:56:05.608Z,95216.44
2019-05-13T23:58:36.428Z,95227.42
